sensor_id;sensor_type;location;lat;lon;timestamp;P1;durP1;ratioP1;P2;durP2;ratioP2
47289;SDS011;33197;52.524;13.444;2023-02-12T00:00:07;22.65;;;10.25;;
47289;SDS011;33197;52.524;13.444;2023-02-12T00:02:35;21.48;;;10.30;;
47289;SDS011;33197;52.524;13.444;2023-02-12T00:05:03;29.27;;;10.75;;
47289;SDS011;33197;52.524;13.444;2023-02-12T00:07:30;26.88;;;10.15;;
47289;SDS011;33197;52.524;13.444;2023-02-12T00:09:57;24.38;;;10.68;;
47289;SDS011;33197;52.524;13.444;2023-02-12T00:12:24;21.77;;;9.85;;
47289;SDS011;33197;52.524;13.444;2023-02-12T00:14:52;22.75;;;10.15;;
47289;SDS011;33197;52.524;13.444;2023-02-12T00:17:19;21.85;;;9.60;;
47289;SDS011;33197;52.524;13.444;2023-02-12T00:19:46;23.08;;;9.43;;
47289;SDS011;33197;52.524;13.444;2023-02-12T00:22:14;26.73;;;9.90;;
47289;SDS011;33197;52.524;13.444;2023-02-12T00:24:41;20.52;;;9.60;;
47289;SDS011;33197;52.524;13.444;2023-02-12T00:27:08;24.63;;;9.48;;
47289;SDS011;33197;52.524;13.444;2023-02-12T00:29:36;22.67;;;9.65;;
47289;SDS011;33197;52.524;13.444;2023-02-12T00:32:03;30.73;;;10.23;;
47289;SDS011;33197;52.524;13.444;2023-02-12T00:34:31;27.25;;;9.88;;
47289;SDS011;33197;52.524;13.444;2023-02-12T00:36:58;27.88;;;9.07;;
47289;SDS011;33197;52.524;13.444;2023-02-12T00:39:25;29.98;;;9.55;;
47289;SDS011;33197;52.524;13.444;2023-02-12T00:41:52;29.52;;;8.90;;
47289;SDS011;33197;52.524;13.444;2023-02-12T00:44:19;24.63;;;7.90;;
47289;SDS011;33197;52.524;13.444;2023-02-12T00:46:46;21.05;;;8.70;;
47289;SDS011;33197;52.524;13.444;2023-02-12T00:49:14;19.83;;;7.50;;
47289;SDS011;33197;52.524;13.444;2023-02-12T00:51:41;24.00;;;8.90;;
47289;SDS011;33197;52.524;13.444;2023-02-12T00:54:08;28.38;;;9.25;;
47289;SDS011;33197;52.524;13.444;2023-02-12T00:56:36;19.55;;;8.00;;
47289;SDS011;33197;52.524;13.444;2023-02-12T00:59:03;24.35;;;8.63;;
47289;SDS011;33197;52.524;13.444;2023-02-12T01:01:30;26.58;;;8.15;;
47289;SDS011;33197;52.524;13.444;2023-02-12T01:03:57;23.48;;;7.38;;
47289;SDS011;33197;52.524;13.444;2023-02-12T01:06:25;28.83;;;9.52;;
47289;SDS011;33197;52.524;13.444;2023-02-12T01:08:52;25.13;;;8.27;;
47289;SDS011;33197;52.524;13.444;2023-02-12T01:11:19;25.13;;;8.05;;
47289;SDS011;33197;52.524;13.444;2023-02-12T01:13:46;25.92;;;8.05;;
47289;SDS011;33197;52.524;13.444;2023-02-12T01:16:18;23.58;;;8.13;;
47289;SDS011;33197;52.524;13.444;2023-02-12T01:18:47;19.65;;;7.97;;
47289;SDS011;33197;52.524;13.444;2023-02-12T01:21:18;22.33;;;8.23;;
47289;SDS011;33197;52.524;13.444;2023-02-12T01:23:47;21.70;;;7.65;;
47289;SDS011;33197;52.524;13.444;2023-02-12T01:26:15;25.70;;;8.00;;
47289;SDS011;33197;52.524;13.444;2023-02-12T01:28:44;24.20;;;8.23;;
47289;SDS011;33197;52.524;13.444;2023-02-12T01:31:16;23.73;;;7.78;;
47289;SDS011;33197;52.524;13.444;2023-02-12T01:33:46;27.20;;;8.18;;
47289;SDS011;33197;52.524;13.444;2023-02-12T01:36:14;21.75;;;7.43;;
47289;SDS011;33197;52.524;13.444;2023-02-12T01:38:41;28.70;;;7.47;;
47289;SDS011;33197;52.524;13.444;2023-02-12T01:41:13;28.45;;;8.80;;
47289;SDS011;33197;52.524;13.444;2023-02-12T01:43:44;29.17;;;8.55;;
47289;SDS011;33197;52.524;13.444;2023-02-12T01:46:12;25.30;;;8.02;;
47289;SDS011;33197;52.524;13.444;2023-02-12T01:48:41;27.60;;;7.68;;
47289;SDS011;33197;52.524;13.444;2023-02-12T01:51:10;29.80;;;7.88;;
47289;SDS011;33197;52.524;13.444;2023-02-12T01:53:42;33.22;;;8.48;;
47289;SDS011;33197;52.524;13.444;2023-02-12T01:56:13;25.75;;;8.02;;
47289;SDS011;33197;52.524;13.444;2023-02-12T01:58:41;24.05;;;8.02;;
47289;SDS011;33197;52.524;13.444;2023-02-12T02:01:11;20.33;;;7.35;;
47289;SDS011;33197;52.524;13.444;2023-02-12T02:03:41;27.08;;;8.27;;
47289;SDS011;33197;52.524;13.444;2023-02-12T02:06:12;25.25;;;7.93;;
47289;SDS011;33197;52.524;13.444;2023-02-12T02:08:42;28.88;;;7.70;;
47289;SDS011;33197;52.524;13.444;2023-02-12T02:11:09;22.48;;;7.32;;
47289;SDS011;33197;52.524;13.444;2023-02-12T02:13:55;26.27;;;7.65;;
47289;SDS011;33197;52.524;13.444;2023-02-12T02:16:42;19.77;;;6.57;;
47289;SDS011;33197;52.524;13.444;2023-02-12T02:28:11;21.13;;;6.85;;
47289;SDS011;33197;52.524;13.444;2023-02-12T02:30:47;22.85;;;6.97;;
47289;SDS011;33197;52.524;13.444;2023-02-12T02:39:28;31.25;;;6.97;;
47289;SDS011;33197;52.524;13.444;2023-02-12T02:45:08;22.92;;;7.03;;
47289;SDS011;33197;52.524;13.444;2023-02-12T02:47:40;32.10;;;7.80;;
47289;SDS011;33197;52.524;13.444;2023-02-12T02:50:15;33.65;;;6.90;;
47289;SDS011;33197;52.524;13.444;2023-02-12T02:55:12;24.92;;;7.20;;
47289;SDS011;33197;52.524;13.444;2023-02-12T02:57:51;24.83;;;6.93;;
47289;SDS011;33197;52.524;13.444;2023-02-12T03:00:23;33.75;;;7.78;;
47289;SDS011;33197;52.524;13.444;2023-02-12T03:02:55;27.30;;;7.60;;
47289;SDS011;33197;52.524;13.444;2023-02-12T03:05:26;30.90;;;7.47;;
47289;SDS011;33197;52.524;13.444;2023-02-12T03:08:02;26.90;;;7.25;;
47289;SDS011;33197;52.524;13.444;2023-02-12T03:10:35;25.42;;;7.20;;
47289;SDS011;33197;52.524;13.444;2023-02-12T03:13:06;27.83;;;7.35;;
47289;SDS011;33197;52.524;13.444;2023-02-12T03:18:14;25.08;;;7.72;;
47289;SDS011;33197;52.524;13.444;2023-02-12T03:20:47;28.88;;;8.10;;
47289;SDS011;33197;52.524;13.444;2023-02-12T03:23:27;28.38;;;7.80;;
47289;SDS011;33197;52.524;13.444;2023-02-12T03:26:02;28.75;;;8.07;;
47289;SDS011;33197;52.524;13.444;2023-02-12T03:28:32;20.70;;;6.55;;
47289;SDS011;33197;52.524;13.444;2023-02-12T03:31:12;24.88;;;6.75;;
47289;SDS011;33197;52.524;13.444;2023-02-12T03:34:03;26.60;;;6.97;;
47289;SDS011;33197;52.524;13.444;2023-02-12T03:39:22;26.15;;;7.68;;
47289;SDS011;33197;52.524;13.444;2023-02-12T03:42:01;23.55;;;7.70;;
47289;SDS011;33197;52.524;13.444;2023-02-12T03:52:40;24.60;;;8.77;;
47289;SDS011;33197;52.524;13.444;2023-02-12T03:55:09;24.00;;;7.53;;
47289;SDS011;33197;52.524;13.444;2023-02-12T03:57:40;28.38;;;7.97;;
47289;SDS011;33197;52.524;13.444;2023-02-12T04:00:11;28.70;;;9.15;;
47289;SDS011;33197;52.524;13.444;2023-02-12T04:02:43;33.70;;;8.95;;
47289;SDS011;33197;52.524;13.444;2023-02-12T04:05:21;26.75;;;7.57;;
47289;SDS011;33197;52.524;13.444;2023-02-12T04:07:52;30.83;;;7.63;;
47289;SDS011;33197;52.524;13.444;2023-02-12T04:10:23;20.42;;;6.85;;
47289;SDS011;33197;52.524;13.444;2023-02-12T04:18:49;29.30;;;7.22;;
47289;SDS011;33197;52.524;13.444;2023-02-12T04:21:37;31.20;;;8.15;;
47289;SDS011;33197;52.524;13.444;2023-02-12T04:24:24;29.75;;;6.97;;
47289;SDS011;33197;52.524;13.444;2023-02-12T04:29:47;33.67;;;9.10;;
47289;SDS011;33197;52.524;13.444;2023-02-12T04:32:30;29.52;;;8.57;;
47289;SDS011;33197;52.524;13.444;2023-02-12T04:35:06;27.15;;;7.68;;
47289;SDS011;33197;52.524;13.444;2023-02-12T04:37:37;30.65;;;9.25;;
47289;SDS011;33197;52.524;13.444;2023-02-12T04:40:11;22.63;;;8.02;;
47289;SDS011;33197;52.524;13.444;2023-02-12T04:42:42;25.15;;;8.50;;
47289;SDS011;33197;52.524;13.444;2023-02-12T04:45:19;27.75;;;7.80;;
47289;SDS011;33197;52.524;13.444;2023-02-12T04:47:48;28.92;;;8.63;;
47289;SDS011;33197;52.524;13.444;2023-02-12T04:50:16;37.83;;;9.05;;
47289;SDS011;33197;52.524;13.444;2023-02-12T04:52:43;29.88;;;7.88;;
47289;SDS011;33197;52.524;13.444;2023-02-12T04:55:11;23.70;;;7.32;;
47289;SDS011;33197;52.524;13.444;2023-02-12T04:57:38;29.77;;;7.93;;
47289;SDS011;33197;52.524;13.444;2023-02-12T05:00:06;29.02;;;7.88;;
47289;SDS011;33197;52.524;13.444;2023-02-12T05:02:35;27.67;;;8.13;;
47289;SDS011;33197;52.524;13.444;2023-02-12T05:05:02;36.28;;;8.00;;
47289;SDS011;33197;52.524;13.444;2023-02-12T05:07:30;25.55;;;6.68;;
47289;SDS011;33197;52.524;13.444;2023-02-12T05:09:57;22.35;;;7.28;;
47289;SDS011;33197;52.524;13.444;2023-02-12T05:12:24;33.00;;;8.93;;
47289;SDS011;33197;52.524;13.444;2023-02-12T05:14:51;32.67;;;8.02;;
47289;SDS011;33197;52.524;13.444;2023-02-12T05:17:20;22.42;;;5.80;;
47289;SDS011;33197;52.524;13.444;2023-02-12T05:19:48;18.63;;;6.40;;
47289;SDS011;33197;52.524;13.444;2023-02-12T05:22:16;28.17;;;6.60;;
47289;SDS011;33197;52.524;13.444;2023-02-12T05:24:43;26.45;;;6.85;;
47289;SDS011;33197;52.524;13.444;2023-02-12T05:27:11;34.67;;;7.28;;
47289;SDS011;33197;52.524;13.444;2023-02-12T05:29:38;22.58;;;5.90;;
47289;SDS011;33197;52.524;13.444;2023-02-12T05:32:05;26.17;;;7.32;;
47289;SDS011;33197;52.524;13.444;2023-02-12T05:34:33;25.73;;;7.00;;
47289;SDS011;33197;52.524;13.444;2023-02-12T05:37:01;20.42;;;6.65;;
47289;SDS011;33197;52.524;13.444;2023-02-12T05:39:28;24.95;;;6.45;;
47289;SDS011;33197;52.524;13.444;2023-02-12T05:41:55;27.65;;;6.75;;
47289;SDS011;33197;52.524;13.444;2023-02-12T05:44:22;33.20;;;7.35;;
47289;SDS011;33197;52.524;13.444;2023-02-12T05:46:50;26.98;;;7.10;;
47289;SDS011;33197;52.524;13.444;2023-02-12T05:49:17;30.38;;;8.20;;
47289;SDS011;33197;52.524;13.444;2023-02-12T05:51:44;32.05;;;7.93;;
47289;SDS011;33197;52.524;13.444;2023-02-12T05:54:11;32.65;;;6.75;;
47289;SDS011;33197;52.524;13.444;2023-02-12T05:56:42;37.03;;;8.70;;
47289;SDS011;33197;52.524;13.444;2023-02-12T05:59:12;25.88;;;7.00;;
47289;SDS011;33197;52.524;13.444;2023-02-12T06:01:42;31.77;;;7.68;;
47289;SDS011;33197;52.524;13.444;2023-02-12T06:04:17;28.13;;;7.50;;
47289;SDS011;33197;52.524;13.444;2023-02-12T06:06:50;31.77;;;8.00;;
47289;SDS011;33197;52.524;13.444;2023-02-12T06:09:18;26.90;;;8.45;;
47289;SDS011;33197;52.524;13.444;2023-02-12T06:11:45;28.77;;;7.72;;
47289;SDS011;33197;52.524;13.444;2023-02-12T06:14:13;26.35;;;6.68;;
47289;SDS011;33197;52.524;13.444;2023-02-12T06:16:48;23.55;;;7.40;;
47289;SDS011;33197;52.524;13.444;2023-02-12T06:19:16;21.17;;;7.40;;
47289;SDS011;33197;52.524;13.444;2023-02-12T06:21:44;28.98;;;7.28;;
47289;SDS011;33197;52.524;13.444;2023-02-12T06:24:12;29.73;;;7.32;;
47289;SDS011;33197;52.524;13.444;2023-02-12T06:26:40;20.95;;;7.03;;
47289;SDS011;33197;52.524;13.444;2023-02-12T06:29:07;24.15;;;7.20;;
47289;SDS011;33197;52.524;13.444;2023-02-12T06:31:35;26.55;;;6.72;;
47289;SDS011;33197;52.524;13.444;2023-02-12T06:34:07;21.27;;;7.32;;
47289;SDS011;33197;52.524;13.444;2023-02-12T06:36:40;17.67;;;6.60;;
47289;SDS011;33197;52.524;13.444;2023-02-12T06:39:10;25.05;;;7.95;;
47289;SDS011;33197;52.524;13.444;2023-02-12T06:41:39;28.75;;;7.50;;
47289;SDS011;33197;52.524;13.444;2023-02-12T06:44:07;27.05;;;8.45;;
47289;SDS011;33197;52.524;13.444;2023-02-12T06:46:34;28.67;;;8.15;;
47289;SDS011;33197;52.524;13.444;2023-02-12T06:49:01;21.50;;;7.57;;
47289;SDS011;33197;52.524;13.444;2023-02-12T06:51:29;25.27;;;6.85;;
47289;SDS011;33197;52.524;13.444;2023-02-12T06:53:57;19.52;;;6.70;;
47289;SDS011;33197;52.524;13.444;2023-02-12T06:56:25;29.80;;;8.07;;
47289;SDS011;33197;52.524;13.444;2023-02-12T06:58:56;28.77;;;8.00;;
47289;SDS011;33197;52.524;13.444;2023-02-12T07:01:26;28.63;;;7.90;;
47289;SDS011;33197;52.524;13.444;2023-02-12T07:03:58;29.73;;;8.20;;
47289;SDS011;33197;52.524;13.444;2023-02-12T07:06:27;33.80;;;7.88;;
47289;SDS011;33197;52.524;13.444;2023-02-12T07:08:55;34.30;;;6.72;;
47289;SDS011;33197;52.524;13.444;2023-02-12T07:11:23;27.27;;;8.32;;
47289;SDS011;33197;52.524;13.444;2023-02-12T07:13:51;27.45;;;6.00;;
47289;SDS011;33197;52.524;13.444;2023-02-12T07:16:19;21.83;;;6.13;;
47289;SDS011;33197;52.524;13.444;2023-02-12T07:18:46;28.17;;;7.15;;
47289;SDS011;33197;52.524;13.444;2023-02-12T07:21:14;23.52;;;6.80;;
47289;SDS011;33197;52.524;13.444;2023-02-12T07:23:44;30.33;;;6.80;;
47289;SDS011;33197;52.524;13.444;2023-02-12T07:26:16;19.95;;;5.80;;
47289;SDS011;33197;52.524;13.444;2023-02-12T07:28:44;22.40;;;6.18;;
47289;SDS011;33197;52.524;13.444;2023-02-12T07:31:12;24.60;;;6.05;;
47289;SDS011;33197;52.524;13.444;2023-02-12T07:33:41;25.30;;;7.85;;
47289;SDS011;33197;52.524;13.444;2023-02-12T07:36:11;24.60;;;6.55;;
47289;SDS011;33197;52.524;13.444;2023-02-12T07:38:39;21.70;;;6.65;;
47289;SDS011;33197;52.524;13.444;2023-02-12T07:41:07;29.30;;;7.75;;
47289;SDS011;33197;52.524;13.444;2023-02-12T07:43:56;21.73;;;6.95;;
47289;SDS011;33197;52.524;13.444;2023-02-12T07:46:34;25.90;;;6.80;;
47289;SDS011;33197;52.524;13.444;2023-02-12T07:49:04;23.13;;;7.93;;
47289;SDS011;33197;52.524;13.444;2023-02-12T07:51:33;25.98;;;7.07;;
47289;SDS011;33197;52.524;13.444;2023-02-12T07:54:01;25.35;;;7.03;;
47289;SDS011;33197;52.524;13.444;2023-02-12T07:56:30;22.60;;;7.32;;
47289;SDS011;33197;52.524;13.444;2023-02-12T08:02:32;21.17;;;6.38;;
47289;SDS011;33197;52.524;13.444;2023-02-12T08:04:59;17.48;;;6.07;;
47289;SDS011;33197;52.524;13.444;2023-02-12T08:07:26;21.50;;;5.65;;
47289;SDS011;33197;52.524;13.444;2023-02-12T08:09:53;23.98;;;6.60;;
47289;SDS011;33197;52.524;13.444;2023-02-12T08:12:20;23.92;;;7.03;;
47289;SDS011;33197;52.524;13.444;2023-02-12T08:14:49;22.50;;;6.38;;
47289;SDS011;33197;52.524;13.444;2023-02-12T08:17:17;25.23;;;7.00;;
47289;SDS011;33197;52.524;13.444;2023-02-12T08:19:44;20.65;;;6.50;;
47289;SDS011;33197;52.524;13.444;2023-02-12T08:22:11;17.52;;;6.20;;
47289;SDS011;33197;52.524;13.444;2023-02-12T08:24:38;26.95;;;6.85;;
47289;SDS011;33197;52.524;13.444;2023-02-12T08:27:06;23.13;;;6.82;;
47289;SDS011;33197;52.524;13.444;2023-02-12T08:29:33;24.83;;;7.00;;
47289;SDS011;33197;52.524;13.444;2023-02-12T08:32:01;21.95;;;6.72;;
47289;SDS011;33197;52.524;13.444;2023-02-12T08:34:30;20.50;;;6.63;;
47289;SDS011;33197;52.524;13.444;2023-02-12T08:37:00;27.40;;;6.80;;
47289;SDS011;33197;52.524;13.444;2023-02-12T08:39:28;26.67;;;8.15;;
47289;SDS011;33197;52.524;13.444;2023-02-12T08:41:56;23.08;;;6.65;;
47289;SDS011;33197;52.524;13.444;2023-02-12T08:44:24;26.48;;;6.70;;
47289;SDS011;33197;52.524;13.444;2023-02-12T08:46:51;22.75;;;6.63;;
47289;SDS011;33197;52.524;13.444;2023-02-12T08:49:22;35.90;;;7.35;;
47289;SDS011;33197;52.524;13.444;2023-02-12T08:51:52;21.65;;;6.65;;
47289;SDS011;33197;52.524;13.444;2023-02-12T08:54:21;22.75;;;6.72;;
47289;SDS011;33197;52.524;13.444;2023-02-12T08:56:53;25.90;;;5.95;;
47289;SDS011;33197;52.524;13.444;2023-02-12T08:59:21;31.60;;;9.10;;
47289;SDS011;33197;52.524;13.444;2023-02-12T09:01:49;20.15;;;7.78;;
47289;SDS011;33197;52.524;13.444;2023-02-12T09:04:20;19.48;;;6.90;;
47289;SDS011;33197;52.524;13.444;2023-02-12T09:06:49;24.90;;;6.63;;
47289;SDS011;33197;52.524;13.444;2023-02-12T09:09:16;19.73;;;6.32;;
47289;SDS011;33197;52.524;13.444;2023-02-12T09:11:45;32.72;;;7.60;;
47289;SDS011;33197;52.524;13.444;2023-02-12T09:14:14;18.77;;;6.72;;
47289;SDS011;33197;52.524;13.444;2023-02-12T09:16:42;24.67;;;6.18;;
47289;SDS011;33197;52.524;13.444;2023-02-12T09:19:10;27.98;;;6.32;;
47289;SDS011;33197;52.524;13.444;2023-02-12T09:21:38;22.45;;;6.63;;
47289;SDS011;33197;52.524;13.444;2023-02-12T09:24:05;25.10;;;6.78;;
47289;SDS011;33197;52.524;13.444;2023-02-12T09:26:33;29.38;;;7.40;;
47289;SDS011;33197;52.524;13.444;2023-02-12T09:29:00;28.70;;;6.63;;
47289;SDS011;33197;52.524;13.444;2023-02-12T09:31:29;22.80;;;6.47;;
47289;SDS011;33197;52.524;13.444;2023-02-12T09:33:58;22.80;;;5.80;;
47289;SDS011;33197;52.524;13.444;2023-02-12T09:36:26;33.88;;;7.00;;
47289;SDS011;33197;52.524;13.444;2023-02-12T09:38:54;28.10;;;7.32;;
47289;SDS011;33197;52.524;13.444;2023-02-12T09:52:17;28.85;;;8.25;;
47289;SDS011;33197;52.524;13.444;2023-02-12T09:54:45;27.42;;;7.47;;
47289;SDS011;33197;52.524;13.444;2023-02-12T10:00:08;27.67;;;8.60;;
47289;SDS011;33197;52.524;13.444;2023-02-12T10:02:38;21.63;;;6.65;;
47289;SDS011;33197;52.524;13.444;2023-02-12T10:05:16;24.73;;;7.53;;
47289;SDS011;33197;52.524;13.444;2023-02-12T10:10:58;27.67;;;7.07;;
47289;SDS011;33197;52.524;13.444;2023-02-12T10:13:53;27.58;;;6.15;;
47289;SDS011;33197;52.524;13.444;2023-02-12T10:22:57;24.83;;;7.43;;
47289;SDS011;33197;52.524;13.444;2023-02-12T10:25:49;19.40;;;7.93;;
47289;SDS011;33197;52.524;13.444;2023-02-12T10:28:33;22.38;;;8.18;;
47289;SDS011;33197;52.524;13.444;2023-02-12T10:31:06;25.95;;;7.38;;
47289;SDS011;33197;52.524;13.444;2023-02-12T10:33:39;26.95;;;8.00;;
47289;SDS011;33197;52.524;13.444;2023-02-12T10:36:13;21.90;;;7.55;;
47289;SDS011;33197;52.524;13.444;2023-02-12T10:39:05;17.70;;;6.80;;
47289;SDS011;33197;52.524;13.444;2023-02-12T10:44:26;22.00;;;7.30;;
47289;SDS011;33197;52.524;13.444;2023-02-12T10:46:54;17.70;;;6.53;;
47289;SDS011;33197;52.524;13.444;2023-02-12T10:49:21;22.73;;;7.68;;
47289;SDS011;33197;52.524;13.444;2023-02-12T10:52:01;30.05;;;7.72;;
47289;SDS011;33197;52.524;13.444;2023-02-12T10:57:13;23.63;;;9.73;;
47289;SDS011;33197;52.524;13.444;2023-02-12T10:59:41;21.38;;;7.82;;
47289;SDS011;33197;52.524;13.444;2023-02-12T11:02:21;24.08;;;9.25;;
47289;SDS011;33197;52.524;13.444;2023-02-12T11:04:50;22.77;;;9.82;;
47289;SDS011;33197;52.524;13.444;2023-02-12T11:07:18;21.08;;;9.95;;
47289;SDS011;33197;52.524;13.444;2023-02-12T11:09:47;31.27;;;10.50;;
47289;SDS011;33197;52.524;13.444;2023-02-12T11:15:00;24.08;;;11.70;;
47289;SDS011;33197;52.524;13.444;2023-02-12T11:17:35;28.77;;;11.15;;
47289;SDS011;33197;52.524;13.444;2023-02-12T11:25:30;26.15;;;11.95;;
47289;SDS011;33197;52.524;13.444;2023-02-12T11:30:31;23.88;;;10.75;;
47289;SDS011;33197;52.524;13.444;2023-02-12T11:36:23;20.65;;;10.43;;
47289;SDS011;33197;52.524;13.444;2023-02-12T11:38:51;19.88;;;9.48;;
47289;SDS011;33197;52.524;13.444;2023-02-12T11:44:10;19.23;;;9.40;;
47289;SDS011;33197;52.524;13.444;2023-02-12T11:46:58;22.75;;;8.93;;
47289;SDS011;33197;52.524;13.444;2023-02-12T11:49:41;18.95;;;8.68;;
47289;SDS011;33197;52.524;13.444;2023-02-12T11:52:19;16.15;;;8.18;;
47289;SDS011;33197;52.524;13.444;2023-02-12T11:54:48;20.70;;;9.80;;
47289;SDS011;33197;52.524;13.444;2023-02-12T12:02:51;16.63;;;8.60;;
47289;SDS011;33197;52.524;13.444;2023-02-12T12:05:39;18.45;;;8.30;;
47289;SDS011;33197;52.524;13.444;2023-02-12T12:08:13;16.30;;;8.45;;
47289;SDS011;33197;52.524;13.444;2023-02-12T12:11:22;17.17;;;7.53;;
47289;SDS011;33197;52.524;13.444;2023-02-12T12:13:54;15.38;;;6.70;;
47289;SDS011;33197;52.524;13.444;2023-02-12T12:16:40;13.50;;;7.07;;
47289;SDS011;33197;52.524;13.444;2023-02-12T12:19:31;12.57;;;7.10;;
47289;SDS011;33197;52.524;13.444;2023-02-12T12:22:22;19.40;;;7.80;;
47289;SDS011;33197;52.524;13.444;2023-02-12T12:25:27;17.17;;;8.73;;
47289;SDS011;33197;52.524;13.444;2023-02-12T12:33:29;14.13;;;7.07;;
47289;SDS011;33197;52.524;13.444;2023-02-12T12:44:23;14.60;;;7.20;;
47289;SDS011;33197;52.524;13.444;2023-02-12T12:52:59;13.07;;;6.65;;
47289;SDS011;33197;52.524;13.444;2023-02-12T12:59:11;13.38;;;6.95;;
47289;SDS011;33197;52.524;13.444;2023-02-12T13:04:08;11.30;;;6.22;;
47289;SDS011;33197;52.524;13.444;2023-02-12T13:09:22;15.15;;;6.93;;
47289;SDS011;33197;52.524;13.444;2023-02-12T13:17:22;13.93;;;6.82;;
47289;SDS011;33197;52.524;13.444;2023-02-12T13:22:58;12.70;;;6.75;;
47289;SDS011;33197;52.524;13.444;2023-02-12T13:25:59;11.32;;;6.50;;
47289;SDS011;33197;52.524;13.444;2023-02-12T13:28:36;11.55;;;6.82;;
47289;SDS011;33197;52.524;13.444;2023-02-12T13:31:06;11.05;;;6.95;;
47289;SDS011;33197;52.524;13.444;2023-02-12T13:33:56;11.60;;;6.55;;
47289;SDS011;33197;52.524;13.444;2023-02-12T13:36:25;11.68;;;6.28;;
47289;SDS011;33197;52.524;13.444;2023-02-12T13:41:38;12.43;;;6.47;;
47289;SDS011;33197;52.524;13.444;2023-02-12T13:44:19;9.45;;;5.15;;
47289;SDS011;33197;52.524;13.444;2023-02-12T13:46:59;12.52;;;6.03;;
47289;SDS011;33197;52.524;13.444;2023-02-12T13:52:55;10.27;;;5.60;;
47289;SDS011;33197;52.524;13.444;2023-02-12T14:00:59;10.93;;;5.20;;
47289;SDS011;33197;52.524;13.444;2023-02-12T14:03:27;7.22;;;4.18;;
47289;SDS011;33197;52.524;13.444;2023-02-12T14:08:47;7.45;;;4.03;;
47289;SDS011;33197;52.524;13.444;2023-02-12T14:11:18;7.75;;;4.05;;
47289;SDS011;33197;52.524;13.444;2023-02-12T14:13:51;7.80;;;3.80;;
47289;SDS011;33197;52.524;13.444;2023-02-12T14:16:39;7.80;;;3.50;;
47289;SDS011;33197;52.524;13.444;2023-02-12T14:24:55;6.65;;;4.60;;
47289;SDS011;33197;52.524;13.444;2023-02-12T14:48:59;6.88;;;4.25;;
47289;SDS011;33197;52.524;13.444;2023-02-12T14:51:42;4.95;;;3.28;;
47289;SDS011;33197;52.524;13.444;2023-02-12T14:54:14;7.28;;;3.80;;
47289;SDS011;33197;52.524;13.444;2023-02-12T14:56:47;7.43;;;4.93;;
47289;SDS011;33197;52.524;13.444;2023-02-12T14:59:18;8.00;;;4.20;;
47289;SDS011;33197;52.524;13.444;2023-02-12T15:01:49;12.48;;;4.75;;
47289;SDS011;33197;52.524;13.444;2023-02-12T15:04:23;7.75;;;4.50;;
47289;SDS011;33197;52.524;13.444;2023-02-12T15:07:08;7.68;;;4.75;;
47289;SDS011;33197;52.524;13.444;2023-02-12T15:09:39;8.20;;;4.57;;
47289;SDS011;33197;52.524;13.444;2023-02-12T15:17:33;9.05;;;5.15;;
47289;SDS011;33197;52.524;13.444;2023-02-12T15:20:06;9.73;;;5.00;;
47289;SDS011;33197;52.524;13.444;2023-02-12T15:22:39;9.75;;;5.05;;
47289;SDS011;33197;52.524;13.444;2023-02-12T15:25:13;7.95;;;4.80;;
47289;SDS011;33197;52.524;13.444;2023-02-12T15:27:46;10.40;;;4.88;;
47289;SDS011;33197;52.524;13.444;2023-02-12T15:30:18;9.40;;;5.50;;
47289;SDS011;33197;52.524;13.444;2023-02-12T15:32:55;9.02;;;5.20;;
47289;SDS011;33197;52.524;13.444;2023-02-12T15:37:53;8.20;;;5.22;;
47289;SDS011;33197;52.524;13.444;2023-02-12T15:40:21;8.65;;;5.47;;
47289;SDS011;33197;52.524;13.444;2023-02-12T15:42:53;6.93;;;4.88;;
47289;SDS011;33197;52.524;13.444;2023-02-12T15:45:26;12.38;;;4.70;;
47289;SDS011;33197;52.524;13.444;2023-02-12T15:56:02;10.40;;;5.35;;
47289;SDS011;33197;52.524;13.444;2023-02-12T15:58:51;10.15;;;5.03;;
47289;SDS011;33197;52.524;13.444;2023-02-12T16:01:19;11.35;;;5.32;;
47289;SDS011;33197;52.524;13.444;2023-02-12T16:03:51;13.60;;;5.82;;
47289;SDS011;33197;52.524;13.444;2023-02-12T16:06:24;9.55;;;5.55;;
47289;SDS011;33197;52.524;13.444;2023-02-12T16:08:55;11.20;;;6.03;;
47289;SDS011;33197;52.524;13.444;2023-02-12T16:11:41;10.25;;;5.55;;
47289;SDS011;33197;52.524;13.444;2023-02-12T16:14:21;10.20;;;5.28;;
47289;SDS011;33197;52.524;13.444;2023-02-12T16:16:51;10.52;;;5.47;;
47289;SDS011;33197;52.524;13.444;2023-02-12T16:19:21;8.40;;;4.97;;
47289;SDS011;33197;52.524;13.444;2023-02-12T16:24:50;7.93;;;4.90;;
47289;SDS011;33197;52.524;13.444;2023-02-12T16:27:20;7.57;;;4.38;;
47289;SDS011;33197;52.524;13.444;2023-02-12T16:29:52;9.10;;;4.75;;
47289;SDS011;33197;52.524;13.444;2023-02-12T16:32:56;8.60;;;5.35;;
47289;SDS011;33197;52.524;13.444;2023-02-12T16:37:43;10.80;;;4.97;;
47289;SDS011;33197;52.524;13.444;2023-02-12T16:48:00;8.50;;;4.20;;
47289;SDS011;33197;52.524;13.444;2023-02-12T16:50:34;7.82;;;3.42;;
47289;SDS011;33197;52.524;13.444;2023-02-12T16:53:06;7.40;;;3.13;;
47289;SDS011;33197;52.524;13.444;2023-02-12T16:55:43;11.45;;;4.03;;
47289;SDS011;33197;52.524;13.444;2023-02-12T16:58:10;6.57;;;3.70;;
47289;SDS011;33197;52.524;13.444;2023-02-12T17:00:37;5.15;;;3.10;;
47289;SDS011;33197;52.524;13.444;2023-02-12T17:03:05;8.23;;;4.10;;
47289;SDS011;33197;52.524;13.444;2023-02-12T17:05:32;8.23;;;4.30;;
47289;SDS011;33197;52.524;13.444;2023-02-12T17:08:00;7.90;;;4.80;;
47289;SDS011;33197;52.524;13.444;2023-02-12T17:10:27;11.20;;;6.30;;
47289;SDS011;33197;52.524;13.444;2023-02-12T17:12:54;11.65;;;8.30;;
47289;SDS011;33197;52.524;13.444;2023-02-12T17:15:24;10.88;;;7.07;;
47289;SDS011;33197;52.524;13.444;2023-02-12T17:17:55;6.82;;;5.00;;
47289;SDS011;33197;52.524;13.444;2023-02-12T17:20:22;13.05;;;6.53;;
47289;SDS011;33197;52.524;13.444;2023-02-12T17:22:50;8.63;;;5.00;;
47289;SDS011;33197;52.524;13.444;2023-02-12T17:25:19;11.00;;;5.93;;
47289;SDS011;33197;52.524;13.444;2023-02-12T17:27:46;9.68;;;5.68;;
47289;SDS011;33197;52.524;13.444;2023-02-12T17:30:14;9.50;;;5.82;;
47289;SDS011;33197;52.524;13.444;2023-02-12T17:32:43;9.43;;;5.40;;
47289;SDS011;33197;52.524;13.444;2023-02-12T17:35:10;7.25;;;4.35;;
47289;SDS011;33197;52.524;13.444;2023-02-12T17:37:37;11.95;;;5.95;;
47289;SDS011;33197;52.524;13.444;2023-02-12T17:40:05;11.30;;;5.38;;
47289;SDS011;33197;52.524;13.444;2023-02-12T17:42:32;7.35;;;4.30;;
47289;SDS011;33197;52.524;13.444;2023-02-12T17:45:00;9.13;;;4.75;;
47289;SDS011;33197;52.524;13.444;2023-02-12T17:47:27;7.85;;;4.63;;
47289;SDS011;33197;52.524;13.444;2023-02-12T17:49:55;8.05;;;4.00;;
47289;SDS011;33197;52.524;13.444;2023-02-12T17:52:23;7.93;;;4.18;;
47289;SDS011;33197;52.524;13.444;2023-02-12T17:54:50;9.65;;;4.35;;
47289;SDS011;33197;52.524;13.444;2023-02-12T17:57:18;9.23;;;4.32;;
47289;SDS011;33197;52.524;13.444;2023-02-12T17:59:45;8.23;;;4.63;;
47289;SDS011;33197;52.524;13.444;2023-02-12T18:02:12;13.88;;;5.45;;
47289;SDS011;33197;52.524;13.444;2023-02-12T18:04:40;9.38;;;4.78;;
47289;SDS011;33197;52.524;13.444;2023-02-12T18:07:08;13.70;;;5.38;;
47289;SDS011;33197;52.524;13.444;2023-02-12T18:09:35;12.68;;;6.47;;
47289;SDS011;33197;52.524;13.444;2023-02-12T18:12:03;7.80;;;5.43;;